Aeroporto :
LOGIN :

Iscrizione | Disclaimer

   EN    FR    IT 

 










Sommario :    VFR   VFR Marginale   IFR   IFR Intensivo   IFR Molto Intensivo
Visibilità : 
Base nubi : 
>= 8 km
>= 3000ft
5 / 8 km
1000 / 3000 ft
1500m / 5 km
500 / 1000 ft
800 / 1500m
200 / 500 ft
< 800m
< 200 ft
Simboli :   Temporali  Nebbia  Neve Forte  Precipitazioni Forti  Vento > 20 kt
SIGMETs :   Varie  Temporali  Ghiacco  Turbolenza  Onda orograficha  Ceneri Vulcaniche






- Altitudine del aeroporto : 1197 ft
- Codice IATA : SPM


ETAD - Spangdahlem Ab

ULTIMO METAR :
  • 121405Z 20014KT 9999 -RA FEW012 OVC021 02/00 A2952 RMK AO2A RAB00 OVC V BKN CIG 020 RWY05 SLP000 $

METARs OBSOLETI :
  • 121400Z COR AUTO 20013G20KT 8000 -RASN FEW016 OVC025 02/00 A2953 RMK AO2 RAB00 CIG 021 RWY05 SLP004 $ COR 1403
  • 121256Z AUTO 20011KT 9999 SCT013 BKN020 OVC026 03/01 A2955 RMK AO2 UPB12E15RAB15E25 CIG 012V020 SLP011 P0000 T00270006 $
  • 121225Z AUTO 18009KT 9999 OVC014 03/01 A2956 RMK AO2 UPB12E15RAB15E25 SLP014 $
  • 121215Z AUTO 21008KT 9999 -RA OVC014 03/01 A2957 RMK AO2 UPB12E15RAB15 SLP017 $
  • 121156Z AUTO 20011G15KT 9999 BKN016 OVC026 03/01 A2958 RMK AO2 CIG 016V026 BKN V SCT SLP021 60000 T00310007 10037 20024 58017 $
  • 121141Z AUTO 21008KT 9999 SCT016 OVC026 03/01 A2959 RMK AO2 CIG 019 RWY05 CIG 025 RWY24 SLP024 $
  • 121126Z AUTO 22010KT 9999 FEW014 OVC030 03/01 A2959 RMK AO2 SLP024 $

TAF AMD TAF ETAD
Valido dal 12 a 13 ore il 13 a 19 ore UTC


121329Z 1213/1319 20012G18KT 9999 FEW015 BKN025 620254 QNH2932INS
TEMPO 1213/1215 8000 -SHRA BKN015 BKN020
BECMG 1218/1219 18012G22KT 9999 OVC010 620187 QNH2913INS
BECMG 1222/1223 19015G25KT 8000 -RASN OVC007 620189 QNH2881INS
BECMG 1303/1304 20010G20KT 8000 -RA OVC005 620259 QNH2873INS
BECMG 1308/1309 20010KT 6000 RA SCT005 BKN007 OVC015 QNH2869INS TX04/1214Z TN01/1223Z



MetMap, La meteo Aeronautica in un colpo d'occhio ! - Copyright ORBIFLY Dicembre 2007 - Disclaimer

ORBIFLY MET'MAP TEAM :

Programmazione e sviluppo : Alexandra Zaïnal
Concezione : Baudouin d'Aumeries
Aiuto per la programmazione : Marc-Olivier Méhu
Supporto tecnico e logistico : Manuel Goepfert
Aiuto per la traduzione : Arnaldo La Scala

Contatto : metmap@orbifly.com




FONTI E CREDITI :

   NOAA